createdAt,value
2023-07-08T00:01:17.588Z,26.90
2023-07-08T00:03:51.501Z,26.90
2023-07-08T00:06:21.489Z,26.80
2023-07-08T00:08:51.473Z,26.80
2023-07-08T00:11:21.209Z,26.80
2023-07-08T00:13:49.178Z,26.80
2023-07-08T00:16:21.248Z,26.70
2023-07-08T00:18:50.150Z,26.70
2023-07-08T00:21:19.459Z,26.60
2023-07-08T00:23:51.868Z,26.60
2023-07-08T00:26:38.063Z,26.50
2023-07-08T00:29:11.357Z,26.40
2023-07-08T00:31:39.277Z,26.40
2023-07-08T00:34:09.947Z,26.40
2023-07-08T00:36:43.974Z,26.30
2023-07-08T00:39:16.669Z,26.30
2023-07-08T00:41:52.484Z,26.30
2023-07-08T00:44:29.649Z,26.30
2023-07-08T00:47:11.388Z,26.30
2023-07-08T00:49:43.280Z,26.20
2023-07-08T00:52:26.362Z,26.10
2023-07-08T00:54:56.407Z,26.10
2023-07-08T00:57:31.019Z,26.10
2023-07-08T01:00:03.603Z,26.00
2023-07-08T01:02:47.296Z,26.00
2023-07-08T01:05:35.657Z,25.90
2023-07-08T01:08:07.135Z,25.90
2023-07-08T01:10:39.659Z,25.90
2023-07-08T01:13:12.071Z,25.90
2023-07-08T01:15:46.223Z,25.80
2023-07-08T01:18:18.181Z,25.70
2023-07-08T01:20:48.378Z,25.70
2023-07-08T01:23:20.493Z,25.60
2023-07-08T01:25:54.471Z,25.50
2023-07-08T01:28:25.199Z,25.50
2023-07-08T01:30:53.188Z,25.60
2023-07-08T01:33:24.247Z,25.60
2023-07-08T01:36:00.931Z,25.70
2023-07-08T01:38:36.625Z,25.70
2023-07-08T01:41:06.722Z,25.60
2023-07-08T01:43:34.933Z,25.60
2023-07-08T01:46:05.108Z,25.60
2023-07-08T01:48:38.691Z,25.60
2023-07-08T01:51:09.523Z,25.60
2023-07-08T01:53:45.947Z,25.60
2023-07-08T01:56:15.388Z,25.60
2023-07-08T01:58:43.708Z,25.60
2023-07-08T02:01:17.934Z,25.50
2023-07-08T02:03:48.808Z,25.50
2023-07-08T02:06:22.761Z,25.50
2023-07-08T02:08:56.017Z,25.50
2023-07-08T02:11:29.472Z,25.50
2023-07-08T02:13:57.439Z,25.50
2023-07-08T02:16:28.564Z,25.40
2023-07-08T02:18:59.588Z,25.40
2023-07-08T02:21:34.563Z,25.40
2023-07-08T02:24:03.892Z,25.40
2023-07-08T02:26:33.103Z,25.40
2023-07-08T02:29:01.189Z,25.30
2023-07-08T02:31:32.153Z,25.30
2023-07-08T02:34:00.071Z,25.30
2023-07-08T02:36:45.521Z,25.30
2023-07-08T02:39:15.389Z,25.30
2023-07-08T02:41:46.221Z,25.20
2023-07-08T02:44:16.987Z,25.20
2023-07-08T02:46:47.463Z,25.10
2023-07-08T02:49:15.345Z,25.10
2023-07-08T02:51:46.017Z,25.10
2023-07-08T02:54:15.318Z,25.10
2023-07-08T02:56:43.201Z,25.10
2023-07-08T02:59:11.199Z,25.00
2023-07-08T03:01:42.712Z,25.00
2023-07-08T03:04:14.150Z,25.00
2023-07-08T03:06:45.984Z,25.00
2023-07-08T03:09:15.588Z,25.00
2023-07-08T03:11:55.294Z,24.90
2023-07-08T03:14:23.238Z,24.90
2023-07-08T03:16:58.790Z,24.90
2023-07-08T03:19:26.983Z,24.90
2023-07-08T03:22:03.718Z,24.90
2023-07-08T03:24:47.378Z,24.90
2023-07-08T03:27:21.824Z,24.90
2023-07-08T03:29:57.248Z,24.80
2023-07-08T03:32:26.770Z,24.70
2023-07-08T03:34:57.868Z,24.70
2023-07-08T03:37:25.807Z,24.70
2023-07-08T03:39:55.140Z,24.70
2023-07-08T03:42:23.037Z,24.70
2023-07-08T03:44:53.840Z,24.70
2023-07-08T03:47:21.795Z,24.60
2023-07-08T03:49:55.546Z,24.60
2023-07-08T03:52:23.538Z,24.50
2023-07-08T03:54:51.404Z,24.50
2023-07-08T03:57:23.240Z,24.50
2023-07-08T03:59:51.125Z,24.50
2023-07-08T04:02:19.035Z,24.50
2023-07-08T04:04:51.482Z,24.50
2023-07-08T04:07:19.609Z,24.50
2023-07-08T04:09:51.432Z,24.50
2023-07-08T04:12:23.384Z,24.50
2023-07-08T04:14:54.346Z,24.50
2023-07-08T04:17:24.889Z,24.40
2023-07-08T04:20:05.101Z,24.40
2023-07-08T04:22:36.100Z,24.30
2023-07-08T04:25:05.488Z,24.20
2023-07-08T04:27:35.091Z,24.20
2023-07-08T04:30:04.007Z,24.00
2023-07-08T04:32:35.007Z,24.00
2023-07-08T04:35:07.044Z,23.90
2023-07-08T04:37:39.256Z,24.00
2023-07-08T04:40:22.921Z,24.00
2023-07-08T04:42:57.422Z,23.90
2023-07-08T04:45:25.350Z,23.80
2023-07-08T04:47:54.379Z,23.80
2023-07-08T04:50:22.686Z,23.70
2023-07-08T04:52:55.923Z,23.60
2023-07-08T04:55:24.470Z,23.60
2023-07-08T04:57:54.210Z,23.20
2023-07-08T05:00:22.535Z,23.20
2023-07-08T05:02:50.511Z,23.10
2023-07-08T05:05:18.755Z,23.30
2023-07-08T05:07:50.640Z,23.10
2023-07-08T05:10:18.955Z,23.30
2023-07-08T05:12:47.860Z,23.30
2023-07-08T05:15:17.743Z,23.40
2023-07-08T05:17:45.752Z,23.30
2023-07-08T05:20:15.888Z,23.20
2023-07-08T05:22:44.620Z,23.10
2023-07-08T05:25:16.248Z,22.80
2023-07-08T05:27:46.459Z,22.70
2023-07-08T05:30:18.439Z,22.60
2023-07-08T05:32:52.567Z,22.80
2023-07-08T05:35:20.489Z,22.70
2023-07-08T05:37:48.500Z,22.80
2023-07-08T05:40:19.461Z,22.60
2023-07-08T05:42:47.362Z,22.70
2023-07-08T05:45:22.694Z,22.70
2023-07-08T05:47:50.712Z,22.90
2023-07-08T05:50:24.837Z,23.10
2023-07-08T05:52:52.698Z,23.40
2023-07-08T05:55:20.637Z,23.30
2023-07-08T05:57:55.900Z,23.10
2023-07-08T06:00:38.876Z,23.00
2023-07-08T06:03:07.339Z,23.10
2023-07-08T06:05:38.040Z,23.20
2023-07-08T06:08:07.448Z,23.40
2023-07-08T06:10:44.247Z,23.50
2023-07-08T06:13:15.594Z,23.60
2023-07-08T06:15:44.960Z,23.60
2023-07-08T06:18:13.003Z,23.50
2023-07-08T06:20:52.352Z,23.50
2023-07-08T06:23:20.282Z,23.50
2023-07-08T06:25:48.174Z,23.60
2023-07-08T06:28:22.656Z,23.70
2023-07-08T06:30:57.698Z,23.90
2023-07-08T06:33:28.624Z,24.00
2023-07-08T06:35:56.543Z,24.10
2023-07-08T06:38:24.512Z,24.20
2023-07-08T06:40:52.420Z,24.30
2023-07-08T06:43:20.471Z,24.40
2023-07-08T06:45:51.310Z,24.60
2023-07-08T06:48:20.610Z,24.70
2023-07-08T06:50:49.309Z,24.70
2023-07-08T06:53:17.589Z,24.80
2023-07-08T06:55:52.058Z,24.80
2023-07-08T06:58:20.067Z,24.90
2023-07-08T07:00:50.785Z,25.00
2023-07-08T07:03:20.073Z,25.10
2023-07-08T07:05:48.118Z,25.10
2023-07-08T07:08:21.315Z,25.20
2023-07-08T07:10:49.251Z,25.30
2023-07-08T07:13:19.949Z,25.30
2023-07-08T07:15:52.409Z,25.40
2023-07-08T07:18:22.407Z,25.40
2023-07-08T07:20:52.775Z,25.40
2023-07-08T07:23:23.813Z,25.50
2023-07-08T07:25:54.959Z,25.50
2023-07-08T07:28:23.038Z,25.60
2023-07-08T07:30:58.854Z,25.80
2023-07-08T07:33:28.837Z,25.80
2023-07-08T07:35:56.755Z,26.00
2023-07-08T07:38:25.669Z,26.00
2023-07-08T07:40:55.564Z,26.20
2023-07-08T07:43:23.531Z,26.30
2023-07-08T07:45:55.292Z,26.40
2023-07-08T07:48:25.135Z,26.40
2023-07-08T07:50:57.267Z,26.50
2023-07-08T07:53:25.392Z,26.60
2023-07-08T07:56:04.852Z,26.70
2023-07-08T07:58:33.868Z,26.70
2023-07-08T08:01:02.242Z,26.80
2023-07-08T08:03:30.391Z,26.80
2023-07-08T08:06:03.443Z,26.70
2023-07-08T08:08:31.848Z,26.80
2023-07-08T08:11:02.629Z,26.90
2023-07-08T08:13:30.590Z,26.90
2023-07-08T08:16:07.631Z,26.90
2023-07-08T08:18:35.891Z,27.10
2023-07-08T08:21:12.556Z,27.20
2023-07-08T08:23:40.495Z,27.30
2023-07-08T08:26:08.390Z,27.40
2023-07-08T08:28:39.087Z,27.40
2023-07-08T08:31:07.155Z,27.40
2023-07-08T08:33:38.247Z,27.40
2023-07-08T08:36:10.152Z,27.40
2023-07-08T08:38:38.055Z,27.50
2023-07-08T08:41:10.772Z,27.70
2023-07-08T08:43:41.256Z,27.80
2023-07-08T08:46:16.521Z,27.80
2023-07-08T08:48:55.702Z,27.80
2023-07-08T08:51:31.009Z,28.00
2023-07-08T08:54:10.129Z,28.00
2023-07-08T08:56:44.655Z,28.10
2023-07-08T08:59:22.369Z,28.10
2023-07-08T09:01:51.148Z,28.20
2023-07-08T09:04:24.410Z,28.20
2023-07-08T09:07:00.550Z,28.30
2023-07-08T09:09:38.498Z,28.40
2023-07-08T09:12:11.786Z,28.40
2023-07-08T09:14:40.909Z,28.50
2023-07-08T09:17:23.943Z,28.50
2023-07-08T09:19:58.736Z,28.50
2023-07-08T09:22:40.511Z,28.50
2023-07-08T09:25:21.946Z,28.50
2023-07-08T09:27:52.777Z,28.50
2023-07-08T09:30:25.671Z,28.60
2023-07-08T09:32:56.299Z,28.60
2023-07-08T09:35:26.876Z,28.70
2023-07-08T09:37:57.103Z,28.70
2023-07-08T09:40:31.723Z,28.80
2023-07-08T09:43:04.506Z,28.90
2023-07-08T09:45:43.579Z,28.90
2023-07-08T09:48:19.562Z,29.00
2023-07-08T09:50:50.713Z,29.00
2023-07-08T09:53:23.580Z,29.00
2023-07-08T09:55:53.976Z,29.10
2023-07-08T09:58:26.214Z,29.10
2023-07-08T10:00:57.438Z,29.20
2023-07-08T10:03:28.205Z,29.40
2023-07-08T10:06:01.280Z,29.40
2023-07-08T10:08:40.068Z,29.50
2023-07-08T10:11:32.481Z,29.50
2023-07-08T10:14:13.228Z,29.50
2023-07-08T10:16:42.718Z,29.50
2023-07-08T10:19:15.017Z,29.40
2023-07-08T10:21:53.076Z,29.50
2023-07-08T10:24:53.105Z,29.50
2023-07-08T10:27:33.227Z,29.60
2023-07-08T10:30:12.996Z,29.60
2023-07-08T10:32:57.350Z,29.60
2023-07-08T10:35:29.804Z,29.60
2023-07-08T10:38:24.846Z,29.60
2023-07-08T10:41:02.541Z,29.70
2023-07-08T10:43:48.118Z,29.80
2023-07-08T10:46:28.456Z,29.90
2023-07-08T10:49:23.353Z,29.90
2023-07-08T10:52:01.204Z,30.00
2023-07-08T10:54:44.689Z,29.90
2023-07-08T10:57:28.095Z,29.90
2023-07-08T11:00:03.803Z,30.00
2023-07-08T11:03:16.861Z,30.00
2023-07-08T11:05:47.751Z,30.00
2023-07-08T11:08:23.285Z,30.10
2023-07-08T11:11:06.599Z,30.10
2023-07-08T11:13:52.647Z,30.10
2023-07-08T11:16:25.437Z,30.20
2023-07-08T11:18:56.952Z,30.10
2023-07-08T11:21:28.608Z,30.30
2023-07-08T11:24:04.292Z,30.40
2023-07-08T11:26:41.338Z,30.40
2023-07-08T11:29:21.575Z,30.50
2023-07-08T11:31:52.901Z,30.60
2023-07-08T11:34:22.584Z,30.70
2023-07-08T11:36:53.046Z,30.90
2023-07-08T11:39:35.163Z,30.90
2023-07-08T11:42:15.156Z,31.00
2023-07-08T11:44:48.544Z,31.10
2023-07-08T11:47:20.843Z,31.30
2023-07-08T11:49:50.635Z,31.20
2023-07-08T11:52:21.205Z,31.20
2023-07-08T11:54:51.118Z,31.10
2023-07-08T11:57:21.181Z,31.10
2023-07-08T12:00:17.686Z,31.00
2023-07-08T12:02:57.250Z,31.00
2023-07-08T12:05:34.010Z,31.10
2023-07-08T12:08:11.789Z,31.10
2023-07-08T12:10:41.627Z,31.20
2023-07-08T12:13:15.878Z,31.30
2023-07-08T12:15:45.622Z,31.40
2023-07-08T12:18:17.910Z,31.70
2023-07-08T12:20:56.568Z,31.80
2023-07-08T12:23:26.871Z,31.70
2023-07-08T12:25:55.962Z,31.60
2023-07-08T12:28:25.382Z,31.60
2023-07-08T12:30:56.089Z,31.50
2023-07-08T12:33:29.844Z,31.60
2023-07-08T12:35:58.719Z,31.70
2023-07-08T12:38:31.962Z,31.80
2023-07-08T12:41:04.639Z,31.90
2023-07-08T12:43:32.590Z,32.00
2023-07-08T12:46:04.956Z,32.00
2023-07-08T12:48:34.023Z,32.00
2023-07-08T12:51:02.136Z,32.00
2023-07-08T12:53:30.387Z,32.40
2023-07-08T12:56:01.187Z,32.50
2023-07-08T12:58:40.109Z,32.70
2023-07-08T13:01:17.690Z,32.80
2023-07-08T13:03:51.690Z,32.70
2023-07-08T13:06:24.100Z,32.90
2023-07-08T13:08:57.247Z,32.80
2023-07-08T13:11:25.903Z,32.90
2023-07-08T13:13:57.911Z,33.00
2023-07-08T13:16:32.023Z,33.10
2023-07-08T13:19:00.122Z,33.20
2023-07-08T13:21:28.877Z,33.30
2023-07-08T13:23:57.209Z,33.30
2023-07-08T13:26:27.783Z,33.30
2023-07-08T13:29:02.460Z,33.30
2023-07-08T13:31:36.827Z,33.30
2023-07-08T13:34:11.946Z,33.50
2023-07-08T13:36:42.662Z,33.30
2023-07-08T13:39:19.648Z,33.20
2023-07-08T13:41:48.346Z,33.10
2023-07-08T13:44:19.233Z,33.00
2023-07-08T13:46:57.026Z,33.10
2023-07-08T13:49:28.813Z,33.10
2023-07-08T13:52:14.305Z,33.20
2023-07-08T13:54:44.702Z,33.20
2023-07-08T13:57:19.808Z,33.20
2023-07-08T13:59:47.824Z,33.10
2023-07-08T14:02:22.339Z,33.30
2023-07-08T14:04:58.356Z,33.50
2023-07-08T14:07:28.477Z,33.40
2023-07-08T14:09:56.411Z,33.30
2023-07-08T14:12:25.046Z,33.30
2023-07-08T14:14:56.003Z,33.40
2023-07-08T14:17:28.581Z,33.30
2023-07-08T14:19:59.647Z,33.30
2023-07-08T14:22:29.889Z,33.40
2023-07-08T14:25:06.425Z,33.70
2023-07-08T14:27:34.342Z,33.70
2023-07-08T14:30:02.261Z,33.70
2023-07-08T14:32:32.937Z,33.60
2023-07-08T14:35:16.697Z,33.60
2023-07-08T14:37:45.020Z,33.60
2023-07-08T14:40:28.656Z,33.40
2023-07-08T14:43:03.963Z,33.20
2023-07-08T14:45:35.674Z,33.20
2023-07-08T14:48:10.428Z,33.20
2023-07-08T14:50:38.467Z,33.30
2023-07-08T14:53:06.517Z,33.30
2023-07-08T14:55:34.998Z,33.30
2023-07-08T14:58:04.115Z,33.70
2023-07-08T15:00:32.417Z,33.80
2023-07-08T15:03:00.713Z,33.70
2023-07-08T15:05:30.361Z,33.60
2023-07-08T15:07:59.759Z,33.60
2023-07-08T15:10:29.567Z,33.50
2023-07-08T15:12:58.672Z,33.50
2023-07-08T15:15:31.930Z,33.40
2023-07-08T15:18:00.798Z,33.30
2023-07-08T15:20:34.621Z,33.10
2023-07-08T15:23:02.569Z,33.20
2023-07-08T15:25:31.119Z,33.30
2023-07-08T15:28:03.225Z,33.40
2023-07-08T15:30:32.212Z,33.50
2023-07-08T15:33:00.266Z,33.70
2023-07-08T15:35:31.322Z,33.60
2023-07-08T15:38:04.970Z,33.30
2023-07-08T15:40:35.014Z,33.30
2023-07-08T15:43:04.436Z,33.30
2023-07-08T15:45:38.115Z,33.40
2023-07-08T15:48:06.798Z,33.40
2023-07-08T15:50:34.812Z,33.50
2023-07-08T15:53:04.090Z,33.50
2023-07-08T15:55:33.924Z,33.60
2023-07-08T15:58:04.950Z,33.70
2023-07-08T16:00:39.419Z,33.90
2023-07-08T16:03:12.127Z,33.90
2023-07-08T16:05:40.190Z,34.20
2023-07-08T16:08:11.336Z,34.40
2023-07-08T16:10:39.436Z,34.40
2023-07-08T16:13:07.384Z,34.20
2023-07-08T16:15:43.591Z,34.10
2023-07-08T16:18:13.102Z,34.10
2023-07-08T16:20:41.129Z,34.10
2023-07-08T16:23:15.766Z,34.10
2023-07-08T16:25:45.907Z,34.00
2023-07-08T16:28:24.060Z,33.80
2023-07-08T16:30:52.184Z,33.50
2023-07-08T16:33:20.139Z,33.10
2023-07-08T16:35:48.116Z,32.90
2023-07-08T16:38:18.338Z,32.70
2023-07-08T16:40:51.812Z,32.50
2023-07-08T16:43:25.646Z,32.30
2023-07-08T16:46:02.359Z,32.20
2023-07-08T16:48:30.324Z,32.30
2023-07-08T16:50:58.576Z,32.30
2023-07-08T16:53:28.065Z,32.20
2023-07-08T16:56:12.233Z,32.20
2023-07-08T16:58:40.616Z,32.20
2023-07-08T17:01:15.508Z,32.10
2023-07-08T17:03:46.759Z,32.10
2023-07-08T17:06:14.791Z,32.00
2023-07-08T17:08:51.927Z,32.00
2023-07-08T17:11:19.918Z,31.90
2023-07-08T17:13:48.263Z,32.00
2023-07-08T17:16:18.929Z,32.00
2023-07-08T17:18:49.073Z,32.00
2023-07-08T17:21:18.133Z,32.00
2023-07-08T17:23:47.564Z,32.00
2023-07-08T17:26:15.485Z,32.00
2023-07-08T17:28:43.624Z,32.10
2023-07-08T17:31:23.564Z,32.00
2023-07-08T17:34:02.507Z,31.90
2023-07-08T17:36:33.738Z,31.80
2023-07-08T17:39:05.636Z,31.70
2023-07-08T17:41:33.613Z,31.50
2023-07-08T17:44:05.022Z,31.60
2023-07-08T17:46:33.182Z,31.60
2023-07-08T17:49:04.110Z,31.60
2023-07-08T17:51:37.182Z,31.80
2023-07-08T17:54:17.029Z,32.20
2023-07-08T17:56:49.285Z,32.40
2023-07-08T17:59:20.326Z,32.70
2023-07-08T18:01:48.632Z,32.90
2023-07-08T18:04:19.767Z,33.10
2023-07-08T18:06:47.705Z,33.30
2023-07-08T18:09:16.967Z,33.30
2023-07-08T18:11:46.982Z,33.20
2023-07-08T18:14:15.193Z,33.20
2023-07-08T18:16:45.714Z,33.10
2023-07-08T18:19:14.053Z,32.90
2023-07-08T18:21:44.385Z,32.90
2023-07-08T18:24:13.777Z,32.40
2023-07-08T18:26:43.105Z,32.20
2023-07-08T18:29:13.083Z,31.90
2023-07-08T18:31:42.542Z,31.80
2023-07-08T18:34:14.218Z,31.80
2023-07-08T18:36:42.335Z,31.70
2023-07-08T18:39:10.292Z,31.70
2023-07-08T18:41:44.790Z,31.80
2023-07-08T18:44:20.674Z,32.00
2023-07-08T18:46:48.628Z,31.90
2023-07-08T18:49:19.543Z,31.70
2023-07-08T18:51:47.891Z,31.70
2023-07-08T18:54:17.272Z,31.70
2023-07-08T18:56:47.268Z,31.80
2023-07-08T18:59:15.408Z,31.80
2023-07-08T19:01:45.025Z,31.90
2023-07-08T19:04:15.752Z,32.10
2023-07-08T19:06:43.746Z,32.20
2023-07-08T19:09:11.687Z,32.00
2023-07-08T19:11:47.345Z,32.20
2023-07-08T19:14:17.637Z,32.30
2023-07-08T19:16:46.248Z,32.50
2023-07-08T19:19:15.058Z,32.50
2023-07-08T19:21:48.404Z,32.60
2023-07-08T19:24:31.916Z,32.60
2023-07-08T19:27:07.041Z,32.60
2023-07-08T19:29:34.957Z,32.70
2023-07-08T19:32:03.095Z,32.70
2023-07-08T19:34:31.263Z,32.60
2023-07-08T19:37:07.972Z,32.60
2023-07-08T19:39:35.871Z,32.50
2023-07-08T19:42:14.912Z,32.50
2023-07-08T19:44:43.249Z,32.50
2023-07-08T19:47:14.148Z,32.50
2023-07-08T19:49:42.126Z,32.50
2023-07-08T19:52:11.562Z,32.30
2023-07-08T19:54:42.301Z,32.40
2023-07-08T19:57:13.647Z,32.60
2023-07-08T19:59:50.539Z,32.40
2023-07-08T20:02:21.426Z,32.40
2023-07-08T20:04:52.564Z,32.40
2023-07-08T20:07:20.465Z,32.50
2023-07-08T20:09:51.152Z,32.50
2023-07-08T20:12:22.959Z,32.60
2023-07-08T20:14:57.809Z,32.60
2023-07-08T20:17:28.645Z,32.70
2023-07-08T20:19:59.313Z,32.70
2023-07-08T20:22:30.260Z,32.70
2023-07-08T20:25:01.927Z,32.70
2023-07-08T20:27:31.417Z,32.70
2023-07-08T20:29:59.320Z,32.70
2023-07-08T20:32:30.258Z,32.70
2023-07-08T20:35:01.253Z,32.70
2023-07-08T20:37:29.151Z,32.70
2023-07-08T20:40:05.408Z,32.70
2023-07-08T20:42:43.593Z,32.70
2023-07-08T20:45:15.845Z,32.60
2023-07-08T20:47:47.931Z,32.70
2023-07-08T20:50:26.060Z,32.70
2023-07-08T20:53:02.338Z,32.70
2023-07-08T20:55:32.681Z,32.70
2023-07-08T20:58:06.018Z,32.60
2023-07-08T21:00:33.989Z,32.60
2023-07-08T21:03:10.230Z,32.60
2023-07-08T21:05:38.269Z,32.50
2023-07-08T21:08:31.171Z,32.50
2023-07-08T21:11:06.230Z,32.40
2023-07-08T21:13:46.101Z,32.30
2023-07-08T21:16:16.071Z,32.30
2023-07-08T21:18:47.725Z,32.30
2023-07-08T21:21:22.498Z,32.30
2023-07-08T21:23:56.342Z,32.30
2023-07-08T21:26:27.893Z,32.30
2023-07-08T21:28:59.286Z,32.30
2023-07-08T21:31:31.399Z,32.20
2023-07-08T21:33:59.605Z,32.20
2023-07-08T21:36:30.553Z,32.20
2023-07-08T21:39:05.872Z,32.20
2023-07-08T21:41:36.333Z,32.10
2023-07-08T21:44:13.411Z,32.10
2023-07-08T21:46:41.354Z,32.10
2023-07-08T21:49:12.347Z,32.10
2023-07-08T21:51:49.867Z,32.00
2023-07-08T21:54:17.925Z,32.00
2023-07-08T21:56:48.350Z,31.90
2023-07-08T21:59:19.506Z,31.90
2023-07-08T22:01:50.263Z,31.90
2023-07-08T22:04:20.995Z,31.80
2023-07-08T22:06:48.972Z,31.80
2023-07-08T22:09:25.713Z,31.80
2023-07-08T22:12:01.085Z,31.80
2023-07-08T22:14:33.517Z,31.70
2023-07-08T22:17:10.961Z,31.70
2023-07-08T22:19:39.423Z,31.70
2023-07-08T22:22:11.350Z,31.60
2023-07-08T22:24:47.912Z,31.60
2023-07-08T22:27:15.907Z,31.50
2023-07-08T22:30:05.781Z,31.40
2023-07-08T22:32:36.810Z,31.40
2023-07-08T22:35:08.821Z,31.40
2023-07-08T22:37:36.781Z,31.40
2023-07-08T22:40:06.784Z,31.40
2023-07-08T22:42:34.960Z,31.40
2023-07-08T22:45:13.105Z,31.40
2023-07-08T22:47:53.443Z,31.30
2023-07-08T22:50:23.241Z,31.10
2023-07-08T22:53:00.325Z,31.00
2023-07-08T22:55:33.111Z,31.00
2023-07-08T22:58:03.040Z,31.00
2023-07-08T23:00:41.629Z,31.00
2023-07-08T23:03:12.484Z,30.80
2023-07-08T23:05:49.370Z,30.90
2023-07-08T23:08:18.973Z,30.80
2023-07-08T23:10:48.877Z,30.90
2023-07-08T23:13:36.617Z,30.80
2023-07-08T23:16:28.278Z,30.80
2023-07-08T23:18:56.613Z,30.80
2023-07-08T23:21:31.699Z,30.80
2023-07-08T23:24:00.148Z,30.80
2023-07-08T23:26:32.776Z,30.70
2023-07-08T23:29:07.386Z,30.70
2023-07-08T23:31:39.676Z,30.50
2023-07-08T23:34:09.521Z,30.50
2023-07-08T23:36:41.303Z,30.50
2023-07-08T23:39:17.389Z,30.50
2023-07-08T23:41:48.658Z,30.40
2023-07-08T23:44:24.825Z,30.40
2023-07-08T23:47:02.560Z,30.40
2023-07-08T23:49:33.100Z,30.40
2023-07-08T23:52:04.369Z,30.40
2023-07-08T23:54:35.673Z,30.40
2023-07-08T23:57:05.483Z,30.40
2023-07-08T23:59:38.480Z,30.30
